createdAt,value
2018-12-29T00:01:36.578Z,102692.80
2018-12-29T00:04:05.766Z,102683.72
2018-12-29T00:06:34.977Z,102685.86
2018-12-29T00:09:07.291Z,102682.39
2018-12-29T00:11:36.439Z,102679.77
2018-12-29T00:14:05.698Z,102681.94
2018-12-29T00:16:35.088Z,102687.13
2018-12-29T00:19:04.350Z,102696.63
2018-12-29T00:21:33.534Z,102694.94
2018-12-29T00:24:02.741Z,102697.53
2018-12-29T00:26:31.918Z,102691.06
2018-12-29T00:29:02.205Z,102709.63
2018-12-29T00:31:32.208Z,102704.90
2018-12-29T00:34:01.394Z,102712.66
2018-12-29T00:36:30.605Z,102705.75
2018-12-29T00:38:59.837Z,102708.77
2018-12-29T00:41:29.174Z,102703.16
2018-12-29T00:43:58.401Z,102710.50
2018-12-29T00:46:27.723Z,102706.19
2018-12-29T00:48:57.220Z,102704.87
2018-12-29T00:51:26.378Z,102705.30
2018-12-29T00:53:55.595Z,102714.37
2018-12-29T00:56:24.882Z,102709.20
2018-12-29T00:58:54.048Z,102713.08
2018-12-29T01:01:23.216Z,102709.19
2018-12-29T01:03:52.419Z,102702.27
2018-12-29T01:06:21.596Z,102700.95
2018-12-29T01:08:50.802Z,102704.41
2018-12-29T01:11:20.140Z,102703.55
2018-12-29T01:13:49.298Z,102708.72
2018-12-29T01:16:18.887Z,102712.16
2018-12-29T01:18:48.126Z,102712.58
2018-12-29T01:21:17.391Z,102715.16
2018-12-29T01:23:46.690Z,102714.30
2018-12-29T01:26:15.984Z,102711.28
2018-12-29T01:28:45.491Z,102710.41
2018-12-29T01:31:14.752Z,102705.66
2018-12-29T01:33:43.916Z,102706.51
2018-12-29T01:36:13.347Z,102704.73
2018-12-29T01:38:42.508Z,102713.37
2018-12-29T01:41:11.645Z,102714.65
2018-12-29T01:43:40.910Z,102718.09
2018-12-29T01:46:10.098Z,102721.55
2018-12-29T01:48:39.229Z,102718.95
2018-12-29T01:51:08.441Z,102724.11
2018-12-29T01:53:37.806Z,102734.48
2018-12-29T01:56:07.006Z,102726.27
2018-12-29T01:58:36.235Z,102726.69
2018-12-29T02:01:05.489Z,102731.85
2018-12-29T02:03:34.866Z,102736.17
2018-12-29T02:06:04.271Z,102732.71
2018-12-29T02:08:33.469Z,102735.28
2018-12-29T02:11:02.704Z,102730.08
2018-12-29T02:13:31.867Z,102731.80
2018-12-29T02:16:02.587Z,102730.50
2018-12-29T02:18:31.751Z,102734.77
2018-12-29T02:21:00.952Z,102730.45
2018-12-29T02:23:31.168Z,102735.62
2018-12-29T02:26:00.329Z,102732.14
2018-12-29T02:28:29.509Z,102733.88
2018-12-29T02:30:58.938Z,102739.04
2018-12-29T02:33:28.141Z,102737.30
2018-12-29T02:35:57.343Z,102734.28
2018-12-29T02:38:26.538Z,102723.05
2018-12-29T02:40:55.850Z,102735.60
2018-12-29T02:43:25.060Z,102726.06
2018-12-29T02:45:54.234Z,102725.18
2018-12-29T02:48:23.427Z,102725.17
2018-12-29T02:50:52.580Z,102726.88
2018-12-29T02:53:21.818Z,102730.34
2018-12-29T02:55:51.004Z,102723.00
2018-12-29T02:58:20.290Z,102719.97
2018-12-29T03:00:49.537Z,102716.06
2018-12-29T03:03:19.178Z,102716.91
2018-12-29T03:05:48.345Z,102715.16
2018-12-29T03:08:17.508Z,102715.98
2018-12-29T03:10:46.692Z,102709.49
2018-12-29T03:13:15.889Z,102708.61
2018-12-29T03:15:45.049Z,102715.53
2018-12-29T03:18:14.265Z,102707.28
2018-12-29T03:20:43.465Z,102721.11
2018-12-29T03:23:12.625Z,102722.81
2018-12-29T03:25:41.788Z,102703.34
2018-12-29T03:28:10.983Z,102699.45
2018-12-29T03:30:40.297Z,102698.59
2018-12-29T03:33:09.442Z,102699.42
2018-12-29T03:35:38.579Z,102684.73
2018-12-29T03:38:07.796Z,102686.89
2018-12-29T03:40:37.190Z,102674.35
2018-12-29T03:43:06.744Z,102671.30
2018-12-29T03:45:35.910Z,102679.89
2018-12-29T03:48:05.061Z,102670.80
2018-12-29T03:50:34.241Z,102678.20
2018-12-29T03:53:03.390Z,102676.81
2018-12-29T03:55:32.545Z,102669.43
2018-12-29T03:58:02.272Z,102667.27
2018-12-29T04:00:31.410Z,102669.41
2018-12-29T04:03:00.566Z,102666.80
2018-12-29T04:05:29.764Z,102659.90
2018-12-29T04:07:58.963Z,102657.75
2018-12-29T04:10:28.094Z,102658.22
2018-12-29T04:12:59.669Z,102660.28
2018-12-29T04:15:28.993Z,102653.34
2018-12-29T04:17:58.180Z,102642.55
2018-12-29T04:20:27.378Z,102646.45
2018-12-29T04:22:56.562Z,102648.61
2018-12-29T04:25:26.624Z,102647.33
2018-12-29T04:27:55.817Z,102643.02
2018-12-29T04:30:24.997Z,102640.88
2018-12-29T04:32:54.178Z,102646.05
2018-12-29T04:35:23.303Z,102647.77
2018-12-29T04:37:52.488Z,102643.90
2018-12-29T04:40:21.698Z,102642.60
2018-12-29T04:42:51.004Z,102645.20
2018-12-29T04:45:20.261Z,102641.30
2018-12-29T04:47:49.435Z,102639.95
2018-12-29T04:50:39.171Z,102636.50
2018-12-29T04:53:08.313Z,102635.17
2018-12-29T04:55:37.543Z,102640.27
2018-12-29T04:58:06.787Z,102637.19
2018-12-29T05:00:35.954Z,102641.92
2018-12-29T05:03:05.135Z,102634.14
2018-12-29T05:05:34.408Z,102640.13
2018-12-29T05:08:03.594Z,102642.27
2018-12-29T05:10:32.764Z,102644.42
2018-12-29T05:13:01.912Z,102648.75
2018-12-29T05:15:31.190Z,102647.88
2018-12-29T05:18:00.370Z,102650.03
2018-12-29T05:20:29.526Z,102647.85
2018-12-29T05:22:58.767Z,102656.00
2018-12-29T05:25:27.919Z,102650.36
2018-12-29T05:27:57.108Z,102654.25
2018-12-29T05:30:26.381Z,102652.48
2018-12-29T05:32:55.549Z,102659.35
2018-12-29T05:35:24.725Z,102655.02
2018-12-29T05:37:53.889Z,102649.39
2018-12-29T05:40:23.049Z,102651.13
2018-12-29T05:42:52.238Z,102655.44
2018-12-29T05:45:21.428Z,102647.67
2018-12-29T05:47:50.723Z,102645.92
2018-12-29T05:50:22.652Z,102656.30
2018-12-29T05:52:51.794Z,102649.81
2018-12-29T05:55:20.933Z,102657.14
2018-12-29T05:57:50.171Z,102653.66
2018-12-29T06:00:19.333Z,102667.52
2018-12-29T06:02:48.477Z,102671.41
2018-12-29T06:05:17.665Z,102671.39
2018-12-29T06:07:46.899Z,102667.08
2018-12-29T06:10:16.069Z,102664.06
2018-12-29T06:12:45.408Z,102667.52
2018-12-29T06:15:14.524Z,102658.48
2018-12-29T06:17:43.726Z,102659.31
2018-12-29T06:20:12.895Z,102666.24
2018-12-29T06:22:42.074Z,102669.27
2018-12-29T06:25:11.789Z,102669.70
2018-12-29T06:27:41.059Z,102671.43
2018-12-29T06:30:10.237Z,102676.60
2018-12-29T06:32:39.395Z,102681.33
2018-12-29T06:35:08.639Z,102670.09
2018-12-29T06:37:37.854Z,102670.49
2018-12-29T06:40:07.170Z,102679.52
2018-12-29T06:42:36.360Z,102672.59
2018-12-29T06:45:05.751Z,102681.68
2018-12-29T06:47:35.023Z,102680.77
2018-12-29T06:50:04.464Z,102683.81
2018-12-29T06:52:33.731Z,102683.38
2018-12-29T06:55:02.938Z,102679.50
2018-12-29T06:57:32.185Z,102665.19
2018-12-29T07:00:01.324Z,102672.07
2018-12-29T07:02:30.500Z,102681.62
2018-12-29T07:04:59.669Z,102672.93
2018-12-29T07:07:28.859Z,102678.08
2018-12-29T07:09:58.020Z,102677.22
2018-12-29T07:12:27.187Z,102676.77
2018-12-29T07:14:56.471Z,102678.48
2018-12-29T07:17:25.636Z,102681.05
2018-12-29T07:19:54.927Z,102681.87
2018-12-29T07:22:24.139Z,102677.97
2018-12-29T07:24:53.349Z,102676.18
2018-12-29T07:27:22.625Z,102678.30
2018-12-29T07:29:51.934Z,102677.34
2018-12-29T07:32:21.083Z,102673.86
2018-12-29T07:34:50.282Z,102679.00
2018-12-29T07:37:19.431Z,102672.39
2018-12-29T07:39:48.597Z,102671.06
2018-12-29T07:42:17.773Z,102664.55
2018-12-29T07:44:46.980Z,102665.38
2018-12-29T07:47:16.354Z,102664.50
2018-12-29T07:49:45.505Z,102657.95
2018-12-29T07:52:14.797Z,102655.36
2018-12-29T07:54:46.234Z,102648.40
2018-12-29T07:57:15.566Z,102648.73
2018-12-29T07:59:44.724Z,102645.64
2018-12-29T08:02:13.898Z,102640.40
2018-12-29T08:04:43.193Z,102637.75
2018-12-29T08:07:12.365Z,102641.18
2018-12-29T08:09:41.627Z,102640.73
2018-12-29T08:12:11.044Z,102641.62
2018-12-29T08:14:40.194Z,102636.87
2018-12-29T08:17:09.373Z,102632.05
2018-12-29T08:19:38.581Z,102630.31
2018-12-29T08:22:07.734Z,102626.84
2018-12-29T08:24:37.011Z,102627.72
2018-12-29T08:27:06.298Z,102622.52
2018-12-29T08:29:35.574Z,102619.92
2018-12-29T08:32:05.345Z,102616.02
2018-12-29T08:34:34.580Z,102609.50
2018-12-29T08:37:03.719Z,102607.70
2018-12-29T08:39:33.140Z,102604.19
2018-12-29T08:42:02.388Z,102601.12
2018-12-29T08:44:31.543Z,102605.44
2018-12-29T08:47:04.698Z,102606.67
2018-12-29T08:49:33.090Z,102597.55
2018-12-29T08:52:02.615Z,102598.83
2018-12-29T08:54:31.880Z,102601.84
2018-12-29T08:57:01.045Z,102600.52
2018-12-29T08:59:30.530Z,102607.42
2018-12-29T09:01:59.812Z,102601.78
2018-12-29T09:04:28.958Z,102602.17
2018-12-29T09:06:58.163Z,102594.76
2018-12-29T09:09:27.381Z,102594.67
2018-12-29T09:11:56.821Z,102591.18
2018-12-29T09:14:26.083Z,102582.97
2018-12-29T09:16:55.284Z,102587.70
2018-12-29T09:19:27.332Z,102578.13
2018-12-29T09:21:55.811Z,102569.85
2018-12-29T09:24:24.962Z,102560.75
2018-12-29T09:26:54.137Z,102552.95
2018-12-29T09:29:23.293Z,102550.38
2018-12-29T09:31:52.492Z,102550.80
2018-12-29T09:34:22.579Z,102547.28
2018-12-29T09:36:51.954Z,102544.33
2018-12-29T09:39:21.265Z,102544.83
2018-12-29T09:41:51.381Z,102545.24
2018-12-29T09:44:20.777Z,102533.73
2018-12-29T09:46:49.912Z,102535.56
2018-12-29T09:49:19.101Z,102533.79
2018-12-29T09:51:48.280Z,102527.77
2018-12-29T09:54:17.411Z,102520.77
2018-12-29T09:56:46.682Z,102518.98
2018-12-29T09:59:15.873Z,102517.16
2018-12-29T10:01:45.052Z,102520.70
2018-12-29T10:04:14.517Z,102523.18
2018-12-29T10:06:43.690Z,102520.52
2018-12-29T10:09:12.873Z,102529.20
2018-12-29T10:11:42.027Z,102526.58
2018-12-29T10:14:11.219Z,102541.70
2018-12-29T10:16:40.385Z,102548.26
2018-12-29T10:19:09.836Z,102538.63
2018-12-29T10:21:39.000Z,102531.68
2018-12-29T10:24:08.300Z,102514.43
2018-12-29T10:26:37.941Z,102508.81
2018-12-29T10:29:07.098Z,102506.09
2018-12-29T10:31:36.348Z,102508.31
2018-12-29T10:34:08.182Z,102502.22
2018-12-29T10:36:39.053Z,102495.69
2018-12-29T10:39:08.513Z,102486.56
2018-12-29T10:41:38.853Z,102471.81
2018-12-29T10:44:08.040Z,102463.47
2018-12-29T10:46:37.350Z,102455.26
2018-12-29T10:49:06.611Z,102468.48
2018-12-29T10:51:35.854Z,102453.94
2018-12-29T10:54:05.012Z,102454.72
2018-12-29T10:56:34.211Z,102436.85
2018-12-29T10:59:03.428Z,102442.22
2018-12-29T11:01:32.659Z,102446.39
2018-12-29T11:04:01.832Z,102451.04
2018-12-29T11:06:31.002Z,102458.20
2018-12-29T11:09:02.291Z,102452.08
2018-12-29T11:11:31.536Z,102438.69
2018-12-29T11:14:00.737Z,102425.67
2018-12-29T11:16:31.762Z,102417.66
2018-12-29T11:19:00.917Z,102406.36
2018-12-29T11:21:30.170Z,102389.81
2018-12-29T11:23:59.344Z,102380.84
2018-12-29T11:26:28.506Z,102374.26
2018-12-29T11:28:57.650Z,102373.41
2018-12-29T11:31:26.872Z,102373.89
2018-12-29T11:33:56.200Z,102378.98
2018-12-29T11:36:25.489Z,102365.40
2018-12-29T11:38:54.655Z,102369.50
2018-12-29T11:41:24.089Z,102366.41
2018-12-29T11:43:53.303Z,102372.84
2018-12-29T11:46:22.571Z,102358.48
2018-12-29T11:48:51.838Z,102351.36
2018-12-29T11:51:21.062Z,102351.58
2018-12-29T11:53:50.364Z,102335.78
2018-12-29T11:56:19.628Z,102332.97
2018-12-29T11:58:48.828Z,102343.52
2018-12-29T12:01:18.059Z,102351.41
2018-12-29T12:03:47.207Z,102346.16
2018-12-29T12:06:16.394Z,102352.63
2018-12-29T12:08:45.541Z,102346.25
2018-12-29T12:11:14.753Z,102342.09
2018-12-29T12:13:44.259Z,102344.00
2018-12-29T12:16:13.475Z,102347.87
2018-12-29T12:18:42.997Z,102365.36
2018-12-29T12:21:12.164Z,102349.30
2018-12-29T12:23:41.671Z,102344.16
2018-12-29T12:26:10.832Z,102334.24
2018-12-29T12:28:40.069Z,102325.25
2018-12-29T12:31:09.822Z,102330.83
2018-12-29T12:33:38.991Z,102323.14
2018-12-29T12:36:08.171Z,102305.03
2018-12-29T12:38:37.385Z,102281.98
2018-12-29T12:41:06.528Z,102260.47
2018-12-29T12:43:35.729Z,102258.72
2018-12-29T12:46:05.341Z,102246.92
2018-12-29T12:48:34.533Z,102247.41
2018-12-29T12:51:04.144Z,102229.94
2018-12-29T12:53:33.320Z,102212.97
2018-12-29T12:56:02.639Z,102202.28
2018-12-29T12:58:31.860Z,102202.05
2018-12-29T13:01:02.913Z,102199.89
2018-12-29T13:03:32.498Z,102203.96
2018-12-29T13:06:01.687Z,102192.86
2018-12-29T13:08:30.998Z,102192.53
2018-12-29T13:11:00.236Z,102190.34
2018-12-29T13:13:29.419Z,102173.48
2018-12-29T13:15:59.105Z,102176.16
2018-12-29T13:18:28.353Z,102180.55
2018-12-29T13:20:57.549Z,102167.67
2018-12-29T13:23:26.749Z,102157.67
2018-12-29T13:25:55.892Z,102151.66
2018-12-29T13:28:25.046Z,102154.30
2018-12-29T13:30:54.228Z,102145.77
2018-12-29T13:33:23.527Z,102143.97
2018-12-29T13:35:52.696Z,102147.80
2018-12-29T13:38:22.184Z,102134.42
2018-12-29T13:40:51.366Z,102127.52
2018-12-29T13:43:20.740Z,102125.81
2018-12-29T13:45:49.978Z,102130.97
2018-12-29T13:48:20.665Z,102116.39
2018-12-29T13:50:50.314Z,102112.94
2018-12-29T13:53:19.454Z,102116.03
2018-12-29T13:55:48.644Z,102105.27
2018-12-29T13:58:18.169Z,102098.36
2018-12-29T14:00:47.476Z,102098.80
2018-12-29T14:03:16.686Z,102072.39
2018-12-29T14:05:46.015Z,102062.80
2018-12-29T14:08:15.216Z,102070.61
2018-12-29T14:10:44.611Z,102091.41
2018-12-29T14:13:13.771Z,102075.36
2018-12-29T14:15:43.312Z,102080.11
2018-12-29T14:18:12.670Z,102089.62
2018-12-29T14:20:41.891Z,102101.28
2018-12-29T14:23:11.077Z,102118.14
2018-12-29T14:25:40.606Z,102116.80
2018-12-29T14:28:10.019Z,102129.34
2018-12-29T14:30:39.232Z,102140.60
2018-12-29T14:33:08.412Z,102148.16
2018-12-29T14:35:37.923Z,102144.59
2018-12-29T14:38:07.056Z,102137.28
2018-12-29T14:40:36.336Z,102125.09
2018-12-29T14:43:05.818Z,102118.55
2018-12-29T14:45:35.089Z,102106.84
2018-12-29T14:48:04.382Z,102088.59
2018-12-29T14:50:33.570Z,102080.25
2018-12-29T14:53:02.701Z,102074.53
2018-12-29T14:55:32.010Z,102073.23
2018-12-29T14:58:01.200Z,102070.13
2018-12-29T15:00:30.755Z,102075.70
2018-12-29T15:02:59.966Z,102071.34
2018-12-29T15:05:29.222Z,102067.44
2018-12-29T15:07:58.431Z,102069.55
2018-12-29T15:10:27.600Z,102067.84
2018-12-29T15:12:56.878Z,102069.55
2018-12-29T15:15:26.168Z,102061.30
2018-12-29T15:17:55.481Z,102049.19
2018-12-29T15:20:24.947Z,102047.44
2018-12-29T15:22:54.584Z,102067.36
2018-12-29T15:25:23.845Z,102063.41
2018-12-29T15:27:53.018Z,102053.00
2018-12-29T15:30:22.179Z,102055.06
2018-12-29T15:32:51.473Z,102055.47
2018-12-29T15:35:20.743Z,102049.81
2018-12-29T15:37:50.711Z,102053.95
2018-12-29T15:40:19.892Z,102053.45
2018-12-29T15:42:49.117Z,102035.20
2018-12-29T15:45:18.596Z,102035.60
2018-12-29T15:47:47.751Z,102044.21
2018-12-29T15:50:16.940Z,102030.75
2018-12-29T15:52:46.146Z,102029.86
2018-12-29T15:55:15.344Z,102024.20
2018-12-29T15:57:44.477Z,102023.61
2018-12-29T16:00:13.690Z,102021.36
2018-12-29T16:02:42.904Z,102027.73
2018-12-29T16:05:12.169Z,102021.63
2018-12-29T16:07:41.595Z,102000.27
2018-12-29T16:10:10.992Z,102000.63
2018-12-29T16:12:40.147Z,102011.53
2018-12-29T16:15:09.801Z,102010.13
2018-12-29T16:17:39.526Z,102007.73
2018-12-29T16:20:08.868Z,101982.02
2018-12-29T16:22:38.007Z,101994.39
2018-12-29T16:25:07.243Z,101988.68
2018-12-29T16:27:36.529Z,102005.16
2018-12-29T16:30:06.055Z,101998.99
2018-12-29T16:32:35.279Z,101982.77
2018-12-29T16:35:04.733Z,101986.63
2018-12-29T16:37:33.931Z,101998.66
2018-12-29T16:40:03.226Z,101992.59
2018-12-29T16:42:32.761Z,101984.23
2018-12-29T16:45:02.297Z,101981.47
2018-12-29T16:47:31.573Z,101972.20
2018-12-29T16:50:00.767Z,101989.03
2018-12-29T16:52:30.123Z,101983.73
2018-12-29T16:54:59.727Z,101977.22
2018-12-29T16:57:28.906Z,101993.25
2018-12-29T16:59:58.144Z,101991.63
2018-12-29T17:02:27.309Z,101986.58
2018-12-29T17:04:56.862Z,101971.53
2018-12-29T17:07:26.009Z,101979.30
2018-12-29T17:09:55.561Z,101986.16
2018-12-29T17:12:24.690Z,101979.79
2018-12-29T17:14:53.842Z,101972.31
2018-12-29T17:17:23.066Z,101970.29
2018-12-29T17:19:52.229Z,101961.23
2018-12-29T17:22:21.464Z,101957.69
2018-12-29T17:24:50.691Z,101954.45
2018-12-29T17:27:20.006Z,101957.52
2018-12-29T17:29:49.543Z,101953.67
2018-12-29T17:32:18.743Z,101940.57
2018-12-29T17:34:48.024Z,101933.42
2018-12-29T17:37:17.336Z,101940.91
2018-12-29T17:39:46.898Z,101936.77
2018-12-29T17:42:16.073Z,101937.30
2018-12-29T17:44:45.344Z,101943.98
2018-12-29T17:47:14.636Z,101948.01
2018-12-29T17:49:43.792Z,101955.02
2018-12-29T17:52:13.054Z,101932.52
2018-12-29T17:54:42.265Z,101938.86
2018-12-29T17:57:11.832Z,101946.00
2018-12-29T17:59:41.047Z,101939.92
2018-12-29T18:02:10.237Z,101944.63
2018-12-29T18:04:39.822Z,101960.98
2018-12-29T18:07:09.052Z,101947.36
2018-12-29T18:09:38.334Z,101966.36
2018-12-29T18:12:07.544Z,101939.86
2018-12-29T18:14:36.954Z,101945.99
2018-12-29T18:17:06.226Z,101937.58
2018-12-29T18:19:35.386Z,101948.87
2018-12-29T18:22:05.017Z,101940.59
2018-12-29T18:24:34.466Z,101944.02
2018-12-29T18:27:03.667Z,101940.38
2018-12-29T18:29:32.879Z,101947.02
2018-12-29T18:32:02.667Z,101946.96
2018-12-29T18:34:33.967Z,101944.88
2018-12-29T18:37:03.153Z,101956.16
2018-12-29T18:39:32.343Z,101948.39
2018-12-29T18:42:02.623Z,101944.88
2018-12-29T18:44:31.770Z,101946.78
2018-12-29T18:47:00.933Z,101964.44
2018-12-29T18:49:30.303Z,101960.59
2018-12-29T18:51:59.547Z,101964.44
2018-12-29T18:54:28.821Z,101960.41
2018-12-29T18:56:58.375Z,101963.77
2018-12-29T18:59:27.631Z,101978.39
2018-12-29T19:01:57.719Z,101977.45
2018-12-29T19:04:27.270Z,101985.48
2018-12-29T19:06:56.563Z,101991.38
2018-12-29T19:09:26.653Z,101994.73
2018-12-29T19:11:55.943Z,101997.00
2018-12-29T19:14:25.258Z,102006.41
2018-12-29T19:16:55.352Z,102002.92
2018-12-29T19:19:24.923Z,102002.53
2018-12-29T19:21:54.238Z,102008.77
2018-12-29T19:24:23.547Z,102016.27
2018-12-29T19:26:53.849Z,102012.84
2018-12-29T19:29:24.370Z,102003.35
2018-12-29T19:31:54.290Z,102014.36
2018-12-29T19:34:23.940Z,102023.64
2018-12-29T19:36:53.174Z,102032.70
2018-12-29T19:39:22.844Z,102026.80
2018-12-29T19:41:55.027Z,102026.96
2018-12-29T19:44:23.758Z,102025.76
2018-12-29T19:46:54.345Z,102044.50
2018-12-29T19:49:23.594Z,102038.12
2018-12-29T19:51:53.043Z,102033.46
2018-12-29T19:54:22.674Z,102042.78
2018-12-29T19:56:52.307Z,102028.05
2018-12-29T19:59:22.713Z,102017.88
2018-12-29T20:01:52.270Z,102031.26
2018-12-29T20:04:22.656Z,102021.88
2018-12-29T20:06:51.850Z,102024.70
2018-12-29T20:09:21.075Z,102022.14
2018-12-29T20:11:51.665Z,102029.05
2018-12-29T20:14:21.462Z,102040.45
2018-12-29T20:16:50.903Z,102021.62
2018-12-29T20:19:20.279Z,102033.72
2018-12-29T20:21:49.608Z,102038.72
2018-12-29T20:24:18.988Z,102032.05
2018-12-29T20:26:48.265Z,102022.13
2018-12-29T20:29:17.582Z,102033.80
2018-12-29T20:31:47.007Z,102035.00
2018-12-29T20:34:16.261Z,102023.34
2018-12-29T20:36:45.446Z,102023.73
2018-12-29T20:39:14.901Z,102025.39
2018-12-29T20:41:44.120Z,102018.53
2018-12-29T20:44:13.313Z,102017.63
2018-12-29T20:46:43.281Z,102019.19
2018-12-29T20:49:12.459Z,102031.80
2018-12-29T20:51:41.757Z,102032.02
2018-12-29T20:54:11.486Z,102034.17
2018-12-29T20:56:40.819Z,102030.71
2018-12-29T20:59:10.195Z,102032.02
2018-12-29T21:01:42.496Z,102025.05
2018-12-29T21:04:12.802Z,102030.86
2018-12-29T21:06:42.333Z,102021.34
2018-12-29T21:09:11.745Z,102022.59
2018-12-29T21:11:43.345Z,102015.41
2018-12-29T21:14:13.012Z,102010.86
2018-12-29T21:16:42.688Z,102033.34
2018-12-29T21:19:12.305Z,102013.72
2018-12-29T21:21:41.518Z,102032.56
2018-12-29T21:24:13.139Z,102005.91
2018-12-29T21:26:42.550Z,102026.25
2018-12-29T21:29:12.042Z,102027.61
2018-12-29T21:31:41.934Z,102038.32
2018-12-29T21:34:11.130Z,102050.04
2018-12-29T21:36:40.639Z,102043.93
2018-12-29T21:39:09.958Z,102037.72
2018-12-29T21:41:39.358Z,102039.83
2018-12-29T21:44:08.629Z,102042.92
2018-12-29T21:46:38.030Z,102031.66
2018-12-29T21:49:07.276Z,102030.05
2018-12-29T21:51:36.546Z,102054.30
2018-12-29T21:54:06.066Z,102044.50
2018-12-29T21:56:35.395Z,102045.14
2018-12-29T21:59:06.164Z,102046.74
2018-12-29T22:01:35.381Z,102050.44
2018-12-29T22:04:04.606Z,102043.53
2018-12-29T22:06:34.262Z,102058.61
2018-12-29T22:09:05.037Z,102067.49
2018-12-29T22:11:34.340Z,102069.41
2018-12-29T22:14:03.640Z,102074.92
2018-12-29T22:16:33.252Z,102085.59
2018-12-29T22:19:04.327Z,102091.75
2018-12-29T22:21:33.533Z,102086.14
2018-12-29T22:24:02.705Z,102079.11
2018-12-29T22:26:31.961Z,102106.84
2018-12-29T22:29:03.813Z,102099.97
2018-12-29T22:31:33.094Z,102110.14
2018-12-29T22:34:03.153Z,102093.45
2018-12-29T22:36:32.541Z,102102.42
2018-12-29T22:39:01.826Z,102112.86
2018-12-29T22:41:31.444Z,102122.44
2018-12-29T22:44:02.258Z,102111.55
2018-12-29T22:46:31.528Z,102124.98
2018-12-29T22:49:00.749Z,102140.45
2018-12-29T22:51:30.005Z,102132.41
2018-12-29T22:53:59.240Z,102141.03
2018-12-29T22:56:28.821Z,102156.28
2018-12-29T22:58:57.981Z,102163.02
2018-12-29T23:01:27.230Z,102150.83
2018-12-29T23:03:56.857Z,102174.19
2018-12-29T23:06:26.023Z,102159.39
2018-12-29T23:08:56.879Z,102178.95
2018-12-29T23:11:26.138Z,102183.02
2018-12-29T23:13:55.298Z,102179.00
2018-12-29T23:16:24.491Z,102185.47
2018-12-29T23:18:53.870Z,102190.78
2018-12-29T23:21:23.105Z,102202.67
2018-12-29T23:23:52.284Z,102215.06
2018-12-29T23:26:21.512Z,102204.52
2018-12-29T23:28:50.664Z,102219.77
2018-12-29T23:31:19.867Z,102217.45
2018-12-29T23:33:49.038Z,102245.83
2018-12-29T23:36:18.801Z,102235.55
2018-12-29T23:38:47.942Z,102248.34
2018-12-29T23:41:17.137Z,102238.62
2018-12-29T23:43:46.617Z,102264.98
2018-12-29T23:46:16.115Z,102259.67
2018-12-29T23:48:45.366Z,102263.84
2018-12-29T23:51:14.578Z,102259.72
2018-12-29T23:53:43.770Z,102263.79
2018-12-29T23:56:13.279Z,102276.73
2018-12-29T23:58:42.415Z,102265.90
